sensor_id;sensor_type;location;lat;lon;timestamp;temperature;humidity
76203;DHT22;64985;46.364;17.008;2023-04-06T00:00:41;-2.30;99.90
76203;DHT22;64985;46.364;17.008;2023-04-06T00:03:44;-2.30;99.90
76203;DHT22;64985;46.364;17.008;2023-04-06T00:06:48;-2.40;99.90
76203;DHT22;64985;46.364;17.008;2023-04-06T00:09:51;-2.40;99.90
76203;DHT22;64985;46.364;17.008;2023-04-06T00:12:55;-2.50;99.90
76203;DHT22;64985;46.364;17.008;2023-04-06T00:16:00;-2.60;99.90
76203;DHT22;64985;46.364;17.008;2023-04-06T00:19:03;-2.60;99.90
76203;DHT22;64985;46.364;17.008;2023-04-06T00:22:06;-2.70;99.90
76203;DHT22;64985;46.364;17.008;2023-04-06T00:25:10;-2.80;99.90
76203;DHT22;64985;46.364;17.008;2023-04-06T00:28:13;-2.90;99.90
76203;DHT22;64985;46.364;17.008;2023-04-06T00:31:17;-2.80;99.90
76203;DHT22;64985;46.364;17.008;2023-04-06T00:34:20;-2.80;99.90
76203;DHT22;64985;46.364;17.008;2023-04-06T00:37:23;-2.80;99.90
76203;DHT22;64985;46.364;17.008;2023-04-06T00:40:26;-2.80;99.90
76203;DHT22;64985;46.364;17.008;2023-04-06T00:43:31;-2.90;99.90
76203;DHT22;64985;46.364;17.008;2023-04-06T00:46:34;-3.00;99.90
76203;DHT22;64985;46.364;17.008;2023-04-06T00:49:38;-3.10;99.90
76203;DHT22;64985;46.364;17.008;2023-04-06T00:52:41;-3.20;99.90
76203;DHT22;64985;46.364;17.008;2023-04-06T00:55:44;-3.20;99.90
76203;DHT22;64985;46.364;17.008;2023-04-06T00:58:47;-3.20;99.90
76203;DHT22;64985;46.364;17.008;2023-04-06T01:01:50;-3.20;99.90
76203;DHT22;64985;46.364;17.008;2023-04-06T01:04:53;-3.20;99.90
76203;DHT22;64985;46.364;17.008;2023-04-06T01:07:57;-3.30;99.90
76203;DHT22;64985;46.364;17.008;2023-04-06T01:11:00;-3.30;99.90
76203;DHT22;64985;46.364;17.008;2023-04-06T01:14:03;-3.30;99.90
76203;DHT22;64985;46.364;17.008;2023-04-06T01:17:07;-3.30;99.90
76203;DHT22;64985;46.364;17.008;2023-04-06T01:20:12;-3.40;99.90
76203;DHT22;64985;46.364;17.008;2023-04-06T01:23:15;-3.40;99.90
76203;DHT22;64985;46.364;17.008;2023-04-06T01:26:19;-3.50;99.90
76203;DHT22;64985;46.364;17.008;2023-04-06T01:29:22;-3.50;99.90
76203;DHT22;64985;46.364;17.008;2023-04-06T01:32:25;-3.50;99.90
76203;DHT22;64985;46.364;17.008;2023-04-06T01:35:29;-3.40;99.90
76203;DHT22;64985;46.364;17.008;2023-04-06T01:38:33;-3.40;99.90
76203;DHT22;64985;46.364;17.008;2023-04-06T01:41:36;-3.30;99.90
76203;DHT22;64985;46.364;17.008;2023-04-06T01:44:39;-3.30;99.90
76203;DHT22;64985;46.364;17.008;2023-04-06T01:47:42;-3.30;99.90
76203;DHT22;64985;46.364;17.008;2023-04-06T01:50:45;-3.40;99.90
76203;DHT22;64985;46.364;17.008;2023-04-06T01:53:48;-3.50;99.90
76203;DHT22;64985;46.364;17.008;2023-04-06T01:56:52;-3.60;99.90
76203;DHT22;64985;46.364;17.008;2023-04-06T01:59:55;-3.60;99.90
76203;DHT22;64985;46.364;17.008;2023-04-06T02:02:59;-3.60;99.90
76203;DHT22;64985;46.364;17.008;2023-04-06T02:06:02;-3.60;99.90
76203;DHT22;64985;46.364;17.008;2023-04-06T02:09:06;-3.60;99.90
76203;DHT22;64985;46.364;17.008;2023-04-06T02:12:10;-3.60;99.90
76203;DHT22;64985;46.364;17.008;2023-04-06T02:15:13;-3.70;99.90
76203;DHT22;64985;46.364;17.008;2023-04-06T02:18:16;-3.70;99.90
76203;DHT22;64985;46.364;17.008;2023-04-06T02:21:20;-3.80;99.90
76203;DHT22;64985;46.364;17.008;2023-04-06T02:24:24;-3.70;99.90
76203;DHT22;64985;46.364;17.008;2023-04-06T02:27:27;-3.70;99.90
76203;DHT22;64985;46.364;17.008;2023-04-06T02:30:30;-3.80;99.90
76203;DHT22;64985;46.364;17.008;2023-04-06T02:33:35;-3.80;99.90
76203;DHT22;64985;46.364;17.008;2023-04-06T02:36:38;-3.90;99.90
76203;DHT22;64985;46.364;17.008;2023-04-06T02:39:41;-4.00;99.90
76203;DHT22;64985;46.364;17.008;2023-04-06T02:42:44;-4.10;99.90
76203;DHT22;64985;46.364;17.008;2023-04-06T02:45:48;-4.20;99.90
76203;DHT22;64985;46.364;17.008;2023-04-06T02:48:51;-4.20;99.90
76203;DHT22;64985;46.364;17.008;2023-04-06T02:51:55;-4.30;99.90
76203;DHT22;64985;46.364;17.008;2023-04-06T02:54:58;-4.40;99.90
76203;DHT22;64985;46.364;17.008;2023-04-06T02:58:01;-4.40;99.90
76203;DHT22;64985;46.364;17.008;2023-04-06T03:01:04;-4.30;99.90
76203;DHT22;64985;46.364;17.008;2023-04-06T03:04:07;-4.30;99.90
76203;DHT22;64985;46.364;17.008;2023-04-06T03:07:10;-4.30;99.90
76203;DHT22;64985;46.364;17.008;2023-04-06T03:10:13;-4.40;99.90
76203;DHT22;64985;46.364;17.008;2023-04-06T03:13:16;-4.40;99.90
76203;DHT22;64985;46.364;17.008;2023-04-06T03:16:19;-4.50;99.90
76203;DHT22;64985;46.364;17.008;2023-04-06T03:19:23;-4.50;99.90
76203;DHT22;64985;46.364;17.008;2023-04-06T03:22:28;-4.50;99.90
76203;DHT22;64985;46.364;17.008;2023-04-06T03:25:31;-4.50;99.90
76203;DHT22;64985;46.364;17.008;2023-04-06T03:28:34;-4.60;99.90
76203;DHT22;64985;46.364;17.008;2023-04-06T03:31:37;-4.50;99.90
76203;DHT22;64985;46.364;17.008;2023-04-06T03:34:40;-4.50;99.90
76203;DHT22;64985;46.364;17.008;2023-04-06T03:37:44;-4.50;99.90
76203;DHT22;64985;46.364;17.008;2023-04-06T03:40:47;-4.50;99.90
76203;DHT22;64985;46.364;17.008;2023-04-06T03:43:50;-4.40;99.90
76203;DHT22;64985;46.364;17.008;2023-04-06T03:47:02;-4.50;99.90
76203;DHT22;64985;46.364;17.008;2023-04-06T03:50:05;-4.50;99.90
76203;DHT22;64985;46.364;17.008;2023-04-06T03:53:09;-4.50;99.90
76203;DHT22;64985;46.364;17.008;2023-04-06T03:56:11;-4.50;99.90
76203;DHT22;64985;46.364;17.008;2023-04-06T03:59:15;-4.50;99.90
76203;DHT22;64985;46.364;17.008;2023-04-06T04:02:18;-4.50;99.90
76203;DHT22;64985;46.364;17.008;2023-04-06T04:05:21;-4.60;99.90
76203;DHT22;64985;46.364;17.008;2023-04-06T04:08:28;-4.60;99.90
76203;DHT22;64985;46.364;17.008;2023-04-06T04:11:31;-4.60;99.90
76203;DHT22;64985;46.364;17.008;2023-04-06T04:14:34;-4.60;99.90
76203;DHT22;64985;46.364;17.008;2023-04-06T04:17:37;-4.60;99.90
76203;DHT22;64985;46.364;17.008;2023-04-06T04:20:41;-4.60;99.90
76203;DHT22;64985;46.364;17.008;2023-04-06T04:23:44;-4.70;99.90
76203;DHT22;64985;46.364;17.008;2023-04-06T04:26:47;-4.90;99.90
76203;DHT22;64985;46.364;17.008;2023-04-06T04:29:50;-4.90;99.90
76203;DHT22;64985;46.364;17.008;2023-04-06T04:32:54;-5.00;99.90
76203;DHT22;64985;46.364;17.008;2023-04-06T04:35:57;-5.00;99.90
76203;DHT22;64985;46.364;17.008;2023-04-06T04:39:00;-5.00;99.90
76203;DHT22;64985;46.364;17.008;2023-04-06T04:42:04;-4.90;99.90
76203;DHT22;64985;46.364;17.008;2023-04-06T04:45:07;-4.90;99.90
76203;DHT22;64985;46.364;17.008;2023-04-06T04:48:10;-4.90;99.90
76203;DHT22;64985;46.364;17.008;2023-04-06T04:51:13;-4.90;99.90
76203;DHT22;64985;46.364;17.008;2023-04-06T04:54:17;-4.90;99.90
76203;DHT22;64985;46.364;17.008;2023-04-06T04:57:20;-4.80;99.90
76203;DHT22;64985;46.364;17.008;2023-04-06T05:00:23;-4.70;99.90
76203;DHT22;64985;46.364;17.008;2023-04-06T05:03:27;-4.70;99.90
76203;DHT22;64985;46.364;17.008;2023-04-06T05:06:30;-4.60;99.90
76203;DHT22;64985;46.364;17.008;2023-04-06T05:09:34;-4.40;99.90
76203;DHT22;64985;46.364;17.008;2023-04-06T05:12:37;-4.20;99.90
76203;DHT22;64985;46.364;17.008;2023-04-06T05:15:41;-4.10;99.90
76203;DHT22;64985;46.364;17.008;2023-04-06T05:18:44;-3.90;99.90
76203;DHT22;64985;46.364;17.008;2023-04-06T05:21:48;-3.80;99.90
76203;DHT22;64985;46.364;17.008;2023-04-06T05:24:51;-3.60;99.90
76203;DHT22;64985;46.364;17.008;2023-04-06T05:27:54;-3.50;99.90
76203;DHT22;64985;46.364;17.008;2023-04-06T05:30:58;-3.30;99.90
76203;DHT22;64985;46.364;17.008;2023-04-06T05:34:01;-3.20;99.90
76203;DHT22;64985;46.364;17.008;2023-04-06T05:37:04;-3.10;99.90
76203;DHT22;64985;46.364;17.008;2023-04-06T05:40:07;-3.00;99.90
76203;DHT22;64985;46.364;17.008;2023-04-06T05:43:10;-2.80;99.90
76203;DHT22;64985;46.364;17.008;2023-04-06T05:46:13;-2.70;99.90
76203;DHT22;64985;46.364;17.008;2023-04-06T05:49:17;-2.50;99.90
76203;DHT22;64985;46.364;17.008;2023-04-06T05:52:19;-2.40;99.90
76203;DHT22;64985;46.364;17.008;2023-04-06T05:55:23;-2.20;99.90
76203;DHT22;64985;46.364;17.008;2023-04-06T05:58:26;-2.10;99.90
76203;DHT22;64985;46.364;17.008;2023-04-06T06:01:29;-1.90;99.90
76203;DHT22;64985;46.364;17.008;2023-04-06T06:04:32;-1.70;99.90
76203;DHT22;64985;46.364;17.008;2023-04-06T06:07:36;-1.40;99.90
76203;DHT22;64985;46.364;17.008;2023-04-06T06:10:39;-0.70;99.90
76203;DHT22;64985;46.364;17.008;2023-04-06T06:13:43;0.00;99.70
76203;DHT22;64985;46.364;17.008;2023-04-06T06:16:46;0.80;99.90
76203;DHT22;64985;46.364;17.008;2023-04-06T06:19:50;1.30;99.60
76203;DHT22;64985;46.364;17.008;2023-04-06T06:22:53;2.00;97.10
76203;DHT22;64985;46.364;17.008;2023-04-06T06:25:56;2.70;96.10
76203;DHT22;64985;46.364;17.008;2023-04-06T06:29:01;3.00;96.10
76203;DHT22;64985;46.364;17.008;2023-04-06T06:32:04;3.40;87.00
76203;DHT22;64985;46.364;17.008;2023-04-06T06:35:08;3.80;89.40
76203;DHT22;64985;46.364;17.008;2023-04-06T06:38:11;4.10;61.80
76203;DHT22;64985;46.364;17.008;2023-04-06T06:41:14;4.10;71.30
76203;DHT22;64985;46.364;17.008;2023-04-06T06:44:18;4.20;65.90
76203;DHT22;64985;46.364;17.008;2023-04-06T06:47:20;4.20;64.60
76203;DHT22;64985;46.364;17.008;2023-04-06T06:50:24;4.60;61.90
76203;DHT22;64985;46.364;17.008;2023-04-06T06:53:28;5.10;57.70
76203;DHT22;64985;46.364;17.008;2023-04-06T06:56:31;5.30;50.30
76203;DHT22;64985;46.364;17.008;2023-04-06T06:59:34;5.50;44.90
76203;DHT22;64985;46.364;17.008;2023-04-06T07:02:37;5.60;38.70
76203;DHT22;64985;46.364;17.008;2023-04-06T07:05:45;6.00;43.00
76203;DHT22;64985;46.364;17.008;2023-04-06T07:08:52;6.50;38.10
76203;DHT22;64985;46.364;17.008;2023-04-06T07:11:55;6.90;35.50
76203;DHT22;64985;46.364;17.008;2023-04-06T07:14:59;7.20;33.10
76203;DHT22;64985;46.364;17.008;2023-04-06T07:18:03;7.20;33.30
76203;DHT22;64985;46.364;17.008;2023-04-06T07:21:07;7.50;34.00
76203;DHT22;64985;46.364;17.008;2023-04-06T07:24:10;7.70;31.20
76203;DHT22;64985;46.364;17.008;2023-04-06T07:27:13;7.60;31.50
76203;DHT22;64985;46.364;17.008;2023-04-06T07:30:19;8.00;32.70
76203;DHT22;64985;46.364;17.008;2023-04-06T07:33:23;8.40;29.50
76203;DHT22;64985;46.364;17.008;2023-04-06T07:36:26;8.30;28.40
76203;DHT22;64985;46.364;17.008;2023-04-06T07:39:29;8.30;29.60
76203;DHT22;64985;46.364;17.008;2023-04-06T07:42:32;8.60;30.30
76203;DHT22;64985;46.364;17.008;2023-04-06T07:45:35;9.00;29.90
76203;DHT22;64985;46.364;17.008;2023-04-06T07:48:39;9.40;30.80
76203;DHT22;64985;46.364;17.008;2023-04-06T07:51:42;10.00;30.00
76203;DHT22;64985;46.364;17.008;2023-04-06T07:54:45;10.40;28.10
76203;DHT22;64985;46.364;17.008;2023-04-06T07:57:48;10.70;29.80
76203;DHT22;64985;46.364;17.008;2023-04-06T08:00:53;10.40;27.40
76203;DHT22;64985;46.364;17.008;2023-04-06T08:03:57;10.30;28.80
76203;DHT22;64985;46.364;17.008;2023-04-06T08:07:01;10.10;28.90
76203;DHT22;64985;46.364;17.008;2023-04-06T08:10:04;10.10;28.30
76203;DHT22;64985;46.364;17.008;2023-04-06T08:13:08;10.80;29.10
76203;DHT22;64985;46.364;17.008;2023-04-06T08:16:11;11.40;29.30
76203;DHT22;64985;46.364;17.008;2023-04-06T08:19:14;11.40;27.70
76203;DHT22;64985;46.364;17.008;2023-04-06T08:22:19;11.50;27.20
76203;DHT22;64985;46.364;17.008;2023-04-06T08:25:22;11.60;28.90
76203;DHT22;64985;46.364;17.008;2023-04-06T08:28:26;11.10;27.00
76203;DHT22;64985;46.364;17.008;2023-04-06T08:31:29;11.60;27.10
76203;DHT22;64985;46.364;17.008;2023-04-06T08:34:33;12.20;26.80
76203;DHT22;64985;46.364;17.008;2023-04-06T08:37:36;12.10;28.00
76203;DHT22;64985;46.364;17.008;2023-04-06T08:40:40;12.30;27.10
76203;DHT22;64985;46.364;17.008;2023-04-06T08:43:57;12.50;28.10
76203;DHT22;64985;46.364;17.008;2023-04-06T08:47:01;12.70;26.10
76203;DHT22;64985;46.364;17.008;2023-04-06T08:50:05;12.60;25.60
76203;DHT22;64985;46.364;17.008;2023-04-06T08:53:11;12.30;25.60
76203;DHT22;64985;46.364;17.008;2023-04-06T08:56:15;12.40;27.20
76203;DHT22;64985;46.364;17.008;2023-04-06T08:59:18;12.50;27.50
76203;DHT22;64985;46.364;17.008;2023-04-06T09:02:22;11.80;25.80
76203;DHT22;64985;46.364;17.008;2023-04-06T09:05:26;12.10;27.40
76203;DHT22;64985;46.364;17.008;2023-04-06T09:08:29;11.90;26.40
76203;DHT22;64985;46.364;17.008;2023-04-06T09:11:51;12.20;26.50
76203;DHT22;64985;46.364;17.008;2023-04-06T09:14:56;12.40;27.90
76203;DHT22;64985;46.364;17.008;2023-04-06T09:17:59;12.70;25.70
76203;DHT22;64985;46.364;17.008;2023-04-06T09:21:04;12.80;26.30
76203;DHT22;64985;46.364;17.008;2023-04-06T09:24:08;12.20;25.70
76203;DHT22;64985;46.364;17.008;2023-04-06T09:27:12;12.40;27.10
76203;DHT22;64985;46.364;17.008;2023-04-06T09:30:16;12.70;26.40
76203;DHT22;64985;46.364;17.008;2023-04-06T09:33:24;12.30;26.60
76203;DHT22;64985;46.364;17.008;2023-04-06T09:36:36;13.20;27.70
76203;DHT22;64985;46.364;17.008;2023-04-06T09:39:45;14.40;26.60
76203;DHT22;64985;46.364;17.008;2023-04-06T09:42:50;14.70;25.50
76203;DHT22;64985;46.364;17.008;2023-04-06T09:45:56;14.30;25.80
76203;DHT22;64985;46.364;17.008;2023-04-06T09:49:01;14.50;24.80
76203;DHT22;64985;46.364;17.008;2023-04-06T09:52:06;14.70;25.20
76203;DHT22;64985;46.364;17.008;2023-04-06T09:55:12;14.70;25.40
76203;DHT22;64985;46.364;17.008;2023-04-06T09:58:22;14.50;26.60
76203;DHT22;64985;46.364;17.008;2023-04-06T10:01:30;14.70;24.80
76203;DHT22;64985;46.364;17.008;2023-04-06T10:08:02;14.20;24.20
76203;DHT22;64985;46.364;17.008;2023-04-06T10:11:08;14.30;23.60
76203;DHT22;64985;46.364;17.008;2023-04-06T10:14:13;14.40;24.90
76203;DHT22;64985;46.364;17.008;2023-04-06T10:17:16;14.90;25.70
76203;DHT22;64985;46.364;17.008;2023-04-06T10:23:51;14.50;25.20
76203;DHT22;64985;46.364;17.008;2023-04-06T10:26:59;15.10;24.90
76203;DHT22;64985;46.364;17.008;2023-04-06T10:30:05;14.40;24.20
76203;DHT22;64985;46.364;17.008;2023-04-06T10:33:20;13.30;23.20
76203;DHT22;64985;46.364;17.008;2023-04-06T10:36:25;13.90;27.30
76203;DHT22;64985;46.364;17.008;2023-04-06T10:39:29;14.60;25.30
76203;DHT22;64985;46.364;17.008;2023-04-06T10:42:38;14.20;22.80
76203;DHT22;64985;46.364;17.008;2023-04-06T10:45:41;13.00;24.90
76203;DHT22;64985;46.364;17.008;2023-04-06T10:48:46;13.80;24.60
76203;DHT22;64985;46.364;17.008;2023-04-06T10:51:54;14.10;24.50
76203;DHT22;64985;46.364;17.008;2023-04-06T10:54:58;14.60;25.20
76203;DHT22;64985;46.364;17.008;2023-04-06T10:58:02;14.90;24.60
76203;DHT22;64985;46.364;17.008;2023-04-06T11:01:11;15.00;23.50
76203;DHT22;64985;46.364;17.008;2023-04-06T11:04:17;14.90;24.00
76203;DHT22;64985;46.364;17.008;2023-04-06T11:07:25;15.00;24.60
76203;DHT22;64985;46.364;17.008;2023-04-06T11:10:29;15.30;24.90
76203;DHT22;64985;46.364;17.008;2023-04-06T11:13:53;14.80;23.30
76203;DHT22;64985;46.364;17.008;2023-04-06T11:16:55;14.20;24.30
76203;DHT22;64985;46.364;17.008;2023-04-06T11:19:59;14.60;24.30
76203;DHT22;64985;46.364;17.008;2023-04-06T11:23:03;15.10;26.30
76203;DHT22;64985;46.364;17.008;2023-04-06T11:26:11;15.80;25.70
76203;DHT22;64985;46.364;17.008;2023-04-06T11:29:19;16.00;25.90
76203;DHT22;64985;46.364;17.008;2023-04-06T11:32:22;16.70;24.30
76203;DHT22;64985;46.364;17.008;2023-04-06T11:35:26;16.60;24.40
76203;DHT22;64985;46.364;17.008;2023-04-06T11:38:30;17.10;24.40
76203;DHT22;64985;46.364;17.008;2023-04-06T11:41:33;17.10;24.30
76203;DHT22;64985;46.364;17.008;2023-04-06T11:44:43;17.30;25.30
76203;DHT22;64985;46.364;17.008;2023-04-06T11:47:59;16.80;24.10
76203;DHT22;64985;46.364;17.008;2023-04-06T11:51:03;16.80;24.60
76203;DHT22;64985;46.364;17.008;2023-04-06T11:54:07;15.90;23.10
76203;DHT22;64985;46.364;17.008;2023-04-06T11:57:10;16.30;25.30
76203;DHT22;64985;46.364;17.008;2023-04-06T12:00:14;17.70;24.50
76203;DHT22;64985;46.364;17.008;2023-04-06T12:03:18;17.50;25.00
76203;DHT22;64985;46.364;17.008;2023-04-06T12:06:21;17.30;24.60
76203;DHT22;64985;46.364;17.008;2023-04-06T12:09:24;17.70;26.40
76203;DHT22;64985;46.364;17.008;2023-04-06T12:12:28;17.30;25.60
76203;DHT22;64985;46.364;17.008;2023-04-06T12:15:31;17.60;26.00
76203;DHT22;64985;46.364;17.008;2023-04-06T12:18:34;17.30;23.90
76203;DHT22;64985;46.364;17.008;2023-04-06T12:21:38;16.50;23.80
76203;DHT22;64985;46.364;17.008;2023-04-06T12:24:41;15.60;22.80
76203;DHT22;64985;46.364;17.008;2023-04-06T12:27:44;15.40;23.60
76203;DHT22;64985;46.364;17.008;2023-04-06T12:30:48;16.10;24.60
76203;DHT22;64985;46.364;17.008;2023-04-06T12:33:52;16.60;24.90
76203;DHT22;64985;46.364;17.008;2023-04-06T12:36:58;16.90;25.60
76203;DHT22;64985;46.364;17.008;2023-04-06T12:40:01;17.00;23.80
76203;DHT22;64985;46.364;17.008;2023-04-06T12:43:06;16.30;23.70
76203;DHT22;64985;46.364;17.008;2023-04-06T12:46:09;16.00;23.30
76203;DHT22;64985;46.364;17.008;2023-04-06T12:49:12;16.10;24.00
76203;DHT22;64985;46.364;17.008;2023-04-06T12:52:34;16.10;24.80
76203;DHT22;64985;46.364;17.008;2023-04-06T12:55:38;15.60;22.50
76203;DHT22;64985;46.364;17.008;2023-04-06T12:58:41;15.60;24.40
76203;DHT22;64985;46.364;17.008;2023-04-06T13:01:45;15.80;25.60
76203;DHT22;64985;46.364;17.008;2023-04-06T13:04:51;15.90;22.80
76203;DHT22;64985;46.364;17.008;2023-04-06T13:07:54;15.90;23.40
76203;DHT22;64985;46.364;17.008;2023-04-06T13:10:58;15.70;23.90
76203;DHT22;64985;46.364;17.008;2023-04-06T13:14:01;15.80;22.30
76203;DHT22;64985;46.364;17.008;2023-04-06T13:17:04;15.60;23.30
76203;DHT22;64985;46.364;17.008;2023-04-06T13:20:07;15.10;22.80
76203;DHT22;64985;46.364;17.008;2023-04-06T13:23:11;15.20;23.70
76203;DHT22;64985;46.364;17.008;2023-04-06T13:26:14;15.40;22.00
76203;DHT22;64985;46.364;17.008;2023-04-06T13:29:19;15.20;22.70
76203;DHT22;64985;46.364;17.008;2023-04-06T13:32:22;14.80;23.20
76203;DHT22;64985;46.364;17.008;2023-04-06T13:35:25;15.50;23.70
76203;DHT22;64985;46.364;17.008;2023-04-06T13:38:29;15.40;22.90
76203;DHT22;64985;46.364;17.008;2023-04-06T13:41:33;15.90;23.90
76203;DHT22;64985;46.364;17.008;2023-04-06T13:44:36;16.40;23.00
76203;DHT22;64985;46.364;17.008;2023-04-06T13:47:39;16.60;23.20
76203;DHT22;64985;46.364;17.008;2023-04-06T13:50:44;16.10;22.60
76203;DHT22;64985;46.364;17.008;2023-04-06T13:53:48;15.80;23.50
76203;DHT22;64985;46.364;17.008;2023-04-06T13:56:55;15.40;23.10
76203;DHT22;64985;46.364;17.008;2023-04-06T13:59:59;15.60;22.50
76203;DHT22;64985;46.364;17.008;2023-04-06T14:03:07;15.30;22.40
76203;DHT22;64985;46.364;17.008;2023-04-06T14:06:14;15.20;23.70
76203;DHT22;64985;46.364;17.008;2023-04-06T14:09:21;15.00;22.70
76203;DHT22;64985;46.364;17.008;2023-04-06T14:12:24;14.70;22.40
76203;DHT22;64985;46.364;17.008;2023-04-06T14:15:27;15.00;23.90
76203;DHT22;64985;46.364;17.008;2023-04-06T14:18:31;14.80;22.40
76203;DHT22;64985;46.364;17.008;2023-04-06T14:21:40;14.80;22.40
76203;DHT22;64985;46.364;17.008;2023-04-06T14:24:43;15.40;22.50
76203;DHT22;64985;46.364;17.008;2023-04-06T14:27:46;15.40;22.50
76203;DHT22;64985;46.364;17.008;2023-04-06T14:30:49;15.10;23.30
76203;DHT22;64985;46.364;17.008;2023-04-06T14:33:53;14.50;22.20
76203;DHT22;64985;46.364;17.008;2023-04-06T14:36:56;14.10;21.20
76203;DHT22;64985;46.364;17.008;2023-04-06T14:39:59;14.10;21.50
76203;DHT22;64985;46.364;17.008;2023-04-06T14:43:03;14.10;22.20
76203;DHT22;64985;46.364;17.008;2023-04-06T14:46:06;14.60;22.80
76203;DHT22;64985;46.364;17.008;2023-04-06T14:49:11;14.60;22.10
76203;DHT22;64985;46.364;17.008;2023-04-06T14:52:15;14.60;22.50
76203;DHT22;64985;46.364;17.008;2023-04-06T14:55:18;14.60;22.90
76203;DHT22;64985;46.364;17.008;2023-04-06T14:58:22;14.40;23.00
76203;DHT22;64985;46.364;17.008;2023-04-06T15:01:25;15.00;22.80
76203;DHT22;64985;46.364;17.008;2023-04-06T15:04:29;15.30;22.60
76203;DHT22;64985;46.364;17.008;2023-04-06T15:07:33;15.60;22.60
76203;DHT22;64985;46.364;17.008;2023-04-06T15:10:36;16.10;23.30
76203;DHT22;64985;46.364;17.008;2023-04-06T15:13:40;16.30;23.40
76203;DHT22;64985;46.364;17.008;2023-04-06T15:16:45;16.20;23.80
76203;DHT22;64985;46.364;17.008;2023-04-06T15:19:48;15.50;21.80
76203;DHT22;64985;46.364;17.008;2023-04-06T15:22:51;15.50;23.00
76203;DHT22;64985;46.364;17.008;2023-04-06T15:25:54;15.00;21.90
76203;DHT22;64985;46.364;17.008;2023-04-06T15:28:57;14.70;21.50
76203;DHT22;64985;46.364;17.008;2023-04-06T15:32:00;14.50;21.00
76203;DHT22;64985;46.364;17.008;2023-04-06T15:35:11;14.30;21.90
76203;DHT22;64985;46.364;17.008;2023-04-06T15:38:14;14.30;21.50
76203;DHT22;64985;46.364;17.008;2023-04-06T15:41:17;14.20;22.20
76203;DHT22;64985;46.364;17.008;2023-04-06T15:44:21;14.00;21.40
76203;DHT22;64985;46.364;17.008;2023-04-06T15:47:24;13.80;22.70
76203;DHT22;64985;46.364;17.008;2023-04-06T15:50:28;13.60;22.80
76203;DHT22;64985;46.364;17.008;2023-04-06T15:53:31;13.40;23.30
76203;DHT22;64985;46.364;17.008;2023-04-06T15:56:34;13.10;23.60
76203;DHT22;64985;46.364;17.008;2023-04-06T15:59:37;13.10;24.40
76203;DHT22;64985;46.364;17.008;2023-04-06T16:02:40;12.90;22.60
76203;DHT22;64985;46.364;17.008;2023-04-06T16:05:45;12.50;22.30
76203;DHT22;64985;46.364;17.008;2023-04-06T16:09:06;12.30;23.50
76203;DHT22;64985;46.364;17.008;2023-04-06T16:12:09;12.40;23.20
76203;DHT22;64985;46.364;17.008;2023-04-06T16:15:12;12.60;23.60
76203;DHT22;64985;46.364;17.008;2023-04-06T16:18:15;12.50;22.60
76203;DHT22;64985;46.364;17.008;2023-04-06T16:21:19;12.20;22.30
76203;DHT22;64985;46.364;17.008;2023-04-06T16:24:22;11.90;22.10
76203;DHT22;64985;46.364;17.008;2023-04-06T16:27:25;11.80;23.50
76203;DHT22;64985;46.364;17.008;2023-04-06T16:30:29;11.50;23.10
76203;DHT22;64985;46.364;17.008;2023-04-06T16:33:33;11.20;24.20
76203;DHT22;64985;46.364;17.008;2023-04-06T16:36:36;11.00;23.80
76203;DHT22;64985;46.364;17.008;2023-04-06T16:39:42;10.60;22.80
76203;DHT22;64985;46.364;17.008;2023-04-06T16:42:45;10.40;22.30
76203;DHT22;64985;46.364;17.008;2023-04-06T16:45:51;10.20;22.30
76203;DHT22;64985;46.364;17.008;2023-04-06T16:48:54;10.00;22.60
76203;DHT22;64985;46.364;17.008;2023-04-06T16:51:58;9.90;23.40
76203;DHT22;64985;46.364;17.008;2023-04-06T16:55:04;9.70;23.00
76203;DHT22;64985;46.364;17.008;2023-04-06T16:58:08;9.60;23.00
76203;DHT22;64985;46.364;17.008;2023-04-06T17:01:26;9.50;23.80
76203;DHT22;64985;46.364;17.008;2023-04-06T17:04:29;9.40;23.50
76203;DHT22;64985;46.364;17.008;2023-04-06T17:07:32;9.30;24.70
76203;DHT22;64985;46.364;17.008;2023-04-06T17:10:38;9.20;24.20
76203;DHT22;64985;46.364;17.008;2023-04-06T17:13:53;9.10;24.70
76203;DHT22;64985;46.364;17.008;2023-04-06T17:16:56;9.00;24.60
76203;DHT22;64985;46.364;17.008;2023-04-06T17:19:59;8.90;24.50
76203;DHT22;64985;46.364;17.008;2023-04-06T17:23:03;8.90;25.10
76203;DHT22;64985;46.364;17.008;2023-04-06T17:26:06;8.80;25.60
76203;DHT22;64985;46.364;17.008;2023-04-06T17:29:09;8.60;26.30
76203;DHT22;64985;46.364;17.008;2023-04-06T17:32:13;8.50;25.80
76203;DHT22;64985;46.364;17.008;2023-04-06T17:35:16;8.40;26.40
76203;DHT22;64985;46.364;17.008;2023-04-06T17:38:19;8.30;26.40
76203;DHT22;64985;46.364;17.008;2023-04-06T17:41:23;8.20;27.80
76203;DHT22;64985;46.364;17.008;2023-04-06T17:44:26;8.10;28.20
76203;DHT22;64985;46.364;17.008;2023-04-06T17:47:29;8.00;30.10
76203;DHT22;64985;46.364;17.008;2023-04-06T17:50:36;7.80;28.70
76203;DHT22;64985;46.364;17.008;2023-04-06T17:53:40;7.70;28.70
76203;DHT22;64985;46.364;17.008;2023-04-06T17:56:44;7.60;29.60
76203;DHT22;64985;46.364;17.008;2023-04-06T17:59:50;7.50;30.60
76203;DHT22;64985;46.364;17.008;2023-04-06T18:02:55;7.30;32.50
76203;DHT22;64985;46.364;17.008;2023-04-06T18:06:09;7.20;33.40
76203;DHT22;64985;46.364;17.008;2023-04-06T18:09:13;7.10;35.50
76203;DHT22;64985;46.364;17.008;2023-04-06T18:12:16;7.00;37.00
76203;DHT22;64985;46.364;17.008;2023-04-06T18:15:19;6.90;33.70
76203;DHT22;64985;46.364;17.008;2023-04-06T18:18:22;6.80;36.40
76203;DHT22;64985;46.364;17.008;2023-04-06T18:21:26;6.70;35.90
76203;DHT22;64985;46.364;17.008;2023-04-06T18:24:30;6.70;35.00
76203;DHT22;64985;46.364;17.008;2023-04-06T18:27:43;6.60;36.70
76203;DHT22;64985;46.364;17.008;2023-04-06T18:30:47;6.50;40.40
76203;DHT22;64985;46.364;17.008;2023-04-06T18:33:50;6.50;49.20
76203;DHT22;64985;46.364;17.008;2023-04-06T18:36:55;6.30;59.30
76203;DHT22;64985;46.364;17.008;2023-04-06T18:39:59;6.30;61.70
76203;DHT22;64985;46.364;17.008;2023-04-06T18:43:05;6.20;72.10
76203;DHT22;64985;46.364;17.008;2023-04-06T18:46:12;6.10;56.30
76203;DHT22;64985;46.364;17.008;2023-04-06T18:49:15;6.10;70.90
76203;DHT22;64985;46.364;17.008;2023-04-06T18:52:19;6.00;74.90
76203;DHT22;64985;46.364;17.008;2023-04-06T18:55:24;5.90;82.80
76203;DHT22;64985;46.364;17.008;2023-04-06T18:58:28;5.80;86.30
76203;DHT22;64985;46.364;17.008;2023-04-06T19:01:32;5.80;83.90
76203;DHT22;64985;46.364;17.008;2023-04-06T19:04:35;5.70;91.40
76203;DHT22;64985;46.364;17.008;2023-04-06T19:07:39;5.60;92.50
76203;DHT22;64985;46.364;17.008;2023-04-06T19:10:44;5.60;82.20
76203;DHT22;64985;46.364;17.008;2023-04-06T19:13:48;5.50;73.80
76203;DHT22;64985;46.364;17.008;2023-04-06T19:16:51;5.50;84.40